Time;durP1;ratioP1;P1;durP2;ratioP2;P2;SDS_P1;SDS_P2;PMS_P1;PMS_P2;Temp;Humidity;BMP_temperature;BMP_pressure;BME280_temperature;BME280_humidity;BME280_pressure;Samples;Min_cycle;Max_cycle;Signal;HPM_P1;HPM_P2
2022/10/05 00:02:21;;;;;;;;;;;;;;;12.85;69.38;101522.75;5014469;28;19935;-74
2022/10/05 00:04:47;;;;;;;;;;;;;;;12.88;69.31;101526.16;5010920;28;20017;-73
2022/10/05 00:07:17;;;;;;;;;;;;;;;12.89;69.27;101521.81;5011917;28;20020;-73
2022/10/05 00:09:44;;;;;;;;;;;;;;;12.85;69.39;101527.97;5010382;28;20485;-73
2022/10/05 00:12:16;;;;;;;;;;;;;;;12.92;69.60;101517.41;5015046;28;20070;-72
2022/10/05 00:14:42;;;;;;;;;;;;;;;12.92;69.58;101514.81;5008524;28;20426;-72
2022/10/05 00:17:18;;;;;;;;;;;;;;;12.99;69.47;101515.53;5011187;28;19937;-72
2022/10/05 00:19:45;;;;;;;;;;;;;;;12.98;69.82;101513.81;5014373;28;19917;-73
2022/10/05 00:22:12;;;;;;;;;;;;;;;13.00;69.50;101509.44;5011525;28;19921;-74
2022/10/05 00:24:38;;;;;;;;;;;;;;;12.99;69.24;101505.97;5009729;28;19927;-73
2022/10/05 00:27:20;;;;;;;;;;;;;;;13.00;69.40;101493.78;4998865;28;20023;-73
2022/10/05 00:29:47;;;;;;;;;;;;;;;13.04;69.15;101482.41;5006461;28;19927;-73
2022/10/05 00:32:12;;;;;;;;;;;;;;;12.99;69.65;101484.22;5009181;28;20011;-73
2022/10/05 00:34:37;;;;;;;;;;;;;;;12.96;69.60;101476.47;5014685;28;20564;-73
2022/10/05 00:37:03;;;;;;;;;;;;;;;12.96;69.84;101477.31;5010391;28;19924;-73
2022/10/05 00:39:28;;;;;;;;;;;;;;;12.91;69.94;101475.69;5010041;28;19922;-73
2022/10/05 00:42:12;;;;;;;;;;;;;;;12.93;69.63;101472.16;5010273;28;20374;-73
2022/10/05 00:45:07;;;;;;;;;;;;;;;12.93;69.53;101476.53;5013862;28;19933;-73
2022/10/05 00:47:36;;;;;;;;;;;;;;;12.93;69.58;101466.97;5001762;28;19937;-74
2022/10/05 00:50:04;;;;;;;;;;;;;;;12.95;69.98;101467.81;5009666;28;19989;-74
2022/10/05 00:52:35;;;;;;;;;;;;;;;12.99;69.50;101468.59;5007444;28;19940;-74
2022/10/05 00:55:18;;;;;;;;;;;;;;;12.99;69.50;101471.19;5008978;28;19929;-74
2022/10/05 00:57:58;;;;;;;;;;;;;;;12.85;69.48;101471.47;5010752;28;20402;-73
2022/10/05 01:00:25;;;;;;;;;;;;;;;12.90;69.44;101477.44;5009639;28;19921;-73
2022/10/05 01:03:02;;;;;;;;;;;;;;;12.84;69.41;101472.34;5007793;28;19971;-73
2022/10/05 01:05:44;;;;;;;;;;;;;;;12.81;69.53;101484.59;5013440;28;19925;-73
2022/10/05 01:08:13;;;;;;;;;;;;;;;12.77;69.29;101475.97;5009754;28;19956;-74
2022/10/05 01:10:46;;;;;;;;;;;;;;;12.78;69.54;101476.84;5015782;28;19928;-73
2022/10/05 01:13:11;;;;;;;;;;;;;;;12.77;69.72;101473.38;5017934;28;19925;-73
2022/10/05 01:15:45;;;;;;;;;;;;;;;12.76;69.11;101482.06;5011445;28;19928;-73
2022/10/05 01:18:14;;;;;;;;;;;;;;;12.69;69.11;101477.84;5018131;28;19974;-73
2022/10/05 01:20:42;;;;;;;;;;;;;;;12.64;68.57;101484.91;5009048;28;19932;-73
2022/10/05 01:23:10;;;;;;;;;;;;;;;12.61;68.62;101482.34;5007280;28;19934;-74
2022/10/05 01:25:54;;;;;;;;;;;;;;;12.52;68.88;101487.69;5017876;28;19914;-73
2022/10/05 01:28:36;;;;;;;;;;;;;;;12.52;68.88;101482.47;5009545;28;20382;-73
2022/10/05 01:31:04;;;;;;;;;;;;;;;12.57;68.31;101483.31;5008121;28;19929;-73
2022/10/05 01:33:39;;;;;;;;;;;;;;;12.50;68.39;101477.31;5008818;28;19917;-73
2022/10/05 01:36:07;;;;;;;;;;;;;;;12.43;68.78;101486.09;5007712;28;20285;-73
2022/10/05 01:38:35;;;;;;;;;;;;;;;12.44;68.96;101482.63;5007985;28;19922;-72
2022/10/05 01:41:24;;;;;;;;;;;;;;;12.44;68.73;101487.84;5008812;28;20332;-73
2022/10/05 01:43:49;;;;;;;;;;;;;;;12.45;68.29;101486.94;4999982;28;20389;-73
2022/10/05 01:46:18;;;;;;;;;;;;;;;12.40;68.53;101482.69;5010138;28;19910;-73
2022/10/05 01:48:52;;;;;;;;;;;;;;;12.37;68.84;101482.75;5012400;28;19921;-73
2022/10/05 01:51:40;;;;;;;;;;;;;;;12.35;67.76;101469.75;5009498;28;20015;-73
2022/10/05 01:54:06;;;;;;;;;;;;;;;12.40;68.22;101482.69;5002928;28;19933;-73
2022/10/05 01:56:57;;;;;;;;;;;;;;;12.35;67.76;101474.09;5007660;28;20290;-73
2022/10/05 01:59:28;;;;;;;;;;;;;;;12.35;68.07;101472.34;5007364;28;19936;-74
2022/10/05 02:01:57;;;;;;;;;;;;;;;12.39;68.18;101465.34;5008206;28;20055;-73
2022/10/05 02:04:26;;;;;;;;;;;;;;;12.40;68.54;101462.72;5016191;28;19986;-73
2022/10/05 02:06:52;;;;;;;;;;;;;;;12.46;68.57;101457.38;5010202;28;19961;-74
2022/10/05 02:09:18;;;;;;;;;;;;;;;12.41;68.49;101460.97;5016628;28;19937;-72
2022/10/05 02:11:46;;;;;;;;;;;;;;;12.34;68.79;101456.72;5011772;28;19921;-74
2022/10/05 02:14:14;;;;;;;;;;;;;;;12.30;68.96;101457.69;5011277;28;20403;-74
2022/10/05 02:16:44;;;;;;;;;;;;;;;12.33;68.17;101448.09;5012999;28;20004;-73
2022/10/05 02:19:16;;;;;;;;;;;;;;;12.40;68.13;101447.06;5017059;28;20031;-73
2022/10/05 02:21:43;;;;;;;;;;;;;;;12.37;68.26;101441.91;4999251;28;19917;-73
2022/10/05 02:24:11;;;;;;;;;;;;;;;12.32;68.49;101440.28;5006984;28;19925;-73
2022/10/05 02:26:38;;;;;;;;;;;;;;;12.36;68.52;101439.34;5011909;28;19922;-73
2022/10/05 02:29:06;;;;;;;;;;;;;;;12.43;68.92;101436.59;5004777;28;19929;-73
2022/10/05 02:31:39;;;;;;;;;;;;;;;12.45;69.60;101439.19;5008382;28;19940;-72
2022/10/05 02:34:19;;;;;;;;;;;;;;;12.45;69.55;101433.97;4997213;28;20264;-73
2022/10/05 02:36:45;;;;;;;;;;;;;;;12.51;69.48;101431.25;5013930;28;19917;-73
2022/10/05 02:39:19;;;;;;;;;;;;;;;12.61;69.63;101425.88;5012420;28;20222;-73
2022/10/05 02:41:47;;;;;;;;;;;;;;;12.46;69.69;101427.84;5016295;28;19944;-73
2022/10/05 02:44:22;;;;;;;;;;;;;;;12.54;69.55;101420.81;5010328;28;19940;-74
2022/10/05 02:46:59;;;;;;;;;;;;;;;12.60;69.14;101420.69;5022717;28;19925;-73
2022/10/05 02:49:44;;;;;;;;;;;;;;;12.60;69.61;101418.94;5019621;28;19992;-73
2022/10/05 02:52:12;;;;;;;;;;;;;;;12.56;69.92;101425.09;5009559;28;19969;-73
2022/10/05 02:54:41;;;;;;;;;;;;;;;12.48;70.14;101432.16;5016536;28;19928;-73
2022/10/05 02:57:36;;;;;;;;;;;;;;;12.48;69.73;101424.34;5011486;28;20310;-73
2022/10/05 03:00:04;;;;;;;;;;;;;;;12.41;69.67;101427.97;4993972;28;20044;-73
2022/10/05 03:02:39;;;;;;;;;;;;;;;12.43;69.71;101428.78;4990931;28;19921;-73
2022/10/05 03:05:19;;;;;;;;;;;;;;;12.44;68.96;101427.91;5009315;28;19917;-73
2022/10/05 03:07:52;;;;;;;;;;;;;;;12.31;69.22;101422.91;5011867;28;20013;-73
2022/10/05 03:10:37;;;;;;;;;;;;;;;12.32;68.70;101424.66;5015746;28;19961;-73
2022/10/05 03:13:15;;;;;;;;;;;;;;;12.27;69.62;101423.88;5014021;28;20419;-73
2022/10/05 03:15:43;;;;;;;;;;;;;;;12.30;69.39;101413.41;5015805;28;20012;-73
2022/10/05 03:18:24;;;;;;;;;;;;;;;12.37;68.76;101415.00;5016170;28;20297;-73
2022/10/05 03:20:52;;;;;;;;;;;;;;;12.38;69.13;101419.34;5017206;28;19932;-73
2022/10/05 03:23:38;;;;;;;;;;;;;;;12.39;68.72;101419.31;5011264;28;20383;-73
2022/10/05 03:26:06;;;;;;;;;;;;;;;12.35;69.02;101424.59;4979190;28;19982;-73
2022/10/05 03:28:37;;;;;;;;;;;;;;;12.38;69.20;101422.81;5009293;28;19921;-73
2022/10/05 03:31:23;;;;;;;;;;;;;;;12.38;69.37;101427.16;5011894;28;20008;-74
2022/10/05 03:34:07;;;;;;;;;;;;;;;12.43;69.43;101426.16;4990487;28;20017;-72
2022/10/05 03:36:32;;;;;;;;;;;;;;;12.42;68.99;101421.00;5017992;28;19929;-74
2022/10/05 03:39:07;;;;;;;;;;;;;;;12.41;69.09;101417.53;5000822;28;20393;-73
2022/10/05 03:41:43;;;;;;;;;;;;;;;12.43;69.12;101417.50;5013472;28;19926;-74
2022/10/05 03:44:14;;;;;;;;;;;;;;;12.35;69.28;101422.84;5013107;28;19929;-74
2022/10/05 03:46:42;;;;;;;;;;;;;;;12.38;69.92;101421.94;5011085;28;19976;-73
2022/10/05 03:49:26;;;;;;;;;;;;;;;12.42;69.08;101419.22;5009823;28;19925;-73
2022/10/05 03:52:01;;;;;;;;;;;;;;;12.38;69.54;101417.59;5013106;28;20008;-74
2022/10/05 03:54:26;;;;;;;;;;;;;;;12.46;68.86;101418.31;5010841;28;19918;-73
2022/10/05 03:56:59;;;;;;;;;;;;;;;12.48;68.86;101416.53;5012330;28;20522;-73
2022/10/05 03:59:28;;;;;;;;;;;;;;;12.44;69.03;101417.47;5010132;28;19917;-72
2022/10/05 04:01:55;;;;;;;;;;;;;;;12.42;68.98;101413.19;5011851;28;19929;-73
2022/10/05 04:04:26;;;;;;;;;;;;;;;12.35;69.12;101411.56;5014381;28;19924;-72
2022/10/05 04:06:53;;;;;;;;;;;;;;;12.38;68.92;101414.13;5010748;28;19961;-74
2022/10/05 04:09:25;;;;;;;;;;;;;;;12.34;69.55;101412.44;5011962;28;19925;-73
2022/10/05 04:11:57;;;;;;;;;;;;;;;12.35;69.68;101409.81;5016723;28;20012;-73
2022/10/05 04:14:29;;;;;;;;;;;;;;;12.32;69.71;101402.06;5013716;28;19968;-73
2022/10/05 04:17:16;;;;;;;;;;;;;;;12.38;69.40;101394.16;5011868;28;19924;-73
2022/10/05 04:19:52;;;;;;;;;;;;;;;12.49;68.82;101393.94;5017284;28;19968;-74
2022/10/05 04:22:34;;;;;;;;;;;;;;;12.44;69.84;101391.44;5008636;28;19930;-73
2022/10/05 04:25:02;;;;;;;;;;;;;;;12.51;69.13;101389.56;5015292;28;19932;-73
2022/10/05 04:27:32;;;;;;;;;;;;;;;12.51;69.48;101385.19;5017299;28;20004;-73
2022/10/05 04:30:02;;;;;;;;;;;;;;;12.56;69.53;101382.53;5013951;28;19928;-73
2022/10/05 04:32:36;;;;;;;;;;;;;;;12.53;69.17;101387.81;5010083;28;19968;-73
2022/10/05 04:35:20;;;;;;;;;;;;;;;12.46;69.72;101381.81;5010907;28;19921;-73
2022/10/05 04:37:54;;;;;;;;;;;;;;;12.54;69.55;101387.78;5006511;28;19924;-73
2022/10/05 04:40:34;;;;;;;;;;;;;;;12.46;70.00;101387.03;5007845;28;19921;-73
2022/10/05 04:43:06;;;;;;;;;;;;;;;12.53;69.51;101383.47;5016817;28;19921;-73
2022/10/05 04:45:43;;;;;;;;;;;;;;;12.47;69.63;101385.28;5013718;28;19917;-73
2022/10/05 04:48:08;;;;;;;;;;;;;;;12.50;69.23;101390.44;5014741;28;20429;-73
2022/10/05 04:50:43;;;;;;;;;;;;;;;12.51;69.07;101386.97;5015642;28;19929;-73
2022/10/05 04:53:27;;;;;;;;;;;;;;;12.49;69.17;101384.38;5009936;28;19929;-73
2022/10/05 04:55:55;;;;;;;;;;;;;;;12.50;69.56;101386.09;5004883;28;19921;-74
2022/10/05 04:58:28;;;;;;;;;;;;;;;12.55;69.33;101391.25;5008318;28;19945;-74
2022/10/05 05:01:03;;;;;;;;;;;;;;;12.48;69.43;101387.84;5011912;28;19928;-73
2022/10/05 05:03:46;;;;;;;;;;;;;;;12.42;69.40;101387.97;5015999;28;19925;-72
2022/10/05 05:06:21;;;;;;;;;;;;;;;12.42;69.49;101384.53;5019612;28;19931;-72
2022/10/05 05:08:46;;;;;;;;;;;;;;;12.36;69.32;101385.50;4999311;28;20373;-72
2022/10/05 05:11:35;;;;;;;;;;;;;;;12.38;69.14;101388.06;5010836;28;19965;-72
2022/10/05 05:14:25;;;;;;;;;;;;;;;12.38;69.30;101388.94;4978780;28;19917;-72
2022/10/05 05:17:07;;;;;;;;;;;;;;;12.34;69.57;101396.81;5020156;28;19913;-73
2022/10/05 05:19:33;;;;;;;;;;;;;;;12.34;69.23;101384.66;5023299;28;19921;-72
2022/10/05 05:22:05;;;;;;;;;;;;;;;12.38;69.33;101386.31;5006720;28;19961;-72
2022/10/05 05:25:09;;;;;;;;;;;;;;;12.38;69.11;101388.94;5008115;28;20016;-72
2022/10/05 05:27:39;;;;;;;;;;;;;;;12.39;69.23;101395.88;4967098;28;19926;-72
2022/10/05 05:30:07;;;;;;;;;;;;;;;12.42;69.18;101390.56;4999560;28;19921;-73
2022/10/05 05:32:53;;;;;;;;;;;;;;;12.47;69.00;101391.38;5011703;28;19925;-73
2022/10/05 05:35:37;;;;;;;;;;;;;;;12.42;69.46;101398.38;5011378;28;19926;-72
2022/10/05 05:38:20;;;;;;;;;;;;;;;12.46;69.32;101394.84;5024415;28;19917;-73
2022/10/05 05:40:46;;;;;;;;;;;;;;;12.43;69.63;101396.66;5009515;28;20367;-72
2022/10/05 05:43:23;;;;;;;;;;;;;;;12.42;69.71;101395.78;5019731;28;19940;-72
2022/10/05 05:45:59;;;;;;;;;;;;;;;12.51;69.51;101397.38;4991592;28;19925;-74
2022/10/05 05:48:41;;;;;;;;;;;;;;;12.50;69.32;101391.31;5010305;28;19936;-72
2022/10/05 05:51:09;;;;;;;;;;;;;;;12.46;70.10;101400.06;5011031;28;20023;-71
2022/10/05 05:53:43;;;;;;;;;;;;;;;12.55;69.77;101397.31;5010677;28;19929;-72
2022/10/05 05:56:16;;;;;;;;;;;;;;;12.62;69.38;101406.75;5005769;28;19917;-72
2022/10/05 05:59:05;;;;;;;;;;;;;;;12.64;69.65;101398.88;4997274;28;19926;-72
2022/10/05 06:01:43;;;;;;;;;;;;;;;12.59;69.52;101404.19;5014299;28;19983;-72
2022/10/05 06:04:18;;;;;;;;;;;;;;;12.60;69.30;101405.06;5010175;28;19948;-72
2022/10/05 06:06:47;;;;;;;;;;;;;;;12.55;69.72;101410.34;5010492;28;19925;-73
2022/10/05 06:09:12;;;;;;;;;;;;;;;12.64;69.73;101404.97;5016649;28;19972;-74
2022/10/05 06:11:41;;;;;;;;;;;;;;;12.68;69.42;101410.13;5006300;28;19968;-72
2022/10/05 06:14:18;;;;;;;;;;;;;;;12.70;69.50;101409.19;5013119;28;20000;-73
2022/10/05 06:16:47;;;;;;;;;;;;;;;12.71;69.68;101407.44;5014641;28;19917;-73
2022/10/05 06:19:15;;;;;;;;;;;;;;;12.75;69.95;101411.72;5013035;28;19932;-73
2022/10/05 06:21:46;;;;;;;;;;;;;;;12.74;69.51;101404.78;5013591;28;20449;-73
2022/10/05 06:24:17;;;;;;;;;;;;;;;12.63;70.27;101413.66;5011211;28;20294;-73
2022/10/05 06:27:03;;;;;;;;;;;;;;;12.71;69.99;101403.09;5013149;28;19925;-73
2022/10/05 06:29:38;;;;;;;;;;;;;;;12.76;69.73;101418.63;5020593;28;20080;-73
2022/10/05 06:32:05;;;;;;;;;;;;;;;12.71;70.02;101415.28;5032833;28;20635;-73
2022/10/05 06:34:45;;;;;;;;;;;;;;;12.88;69.33;101406.22;5016476;28;19917;-73
2022/10/05 06:37:27;;;;;;;;;;;;;;;12.85;69.43;101408.03;5009927;28;19917;-73
2022/10/05 06:40:01;;;;;;;;;;;;;;;12.88;69.46;101411.44;5010819;28;19933;-73
2022/10/05 06:42:35;;;;;;;;;;;;;;;12.84;69.18;101408.94;5000612;28;19971;-73
2022/10/05 06:45:04;;;;;;;;;;;;;;;12.88;69.20;101410.56;5019420;28;19921;-73
2022/10/05 06:47:41;;;;;;;;;;;;;;;12.93;69.03;101404.38;5018334;28;19921;-73
2022/10/05 06:50:26;;;;;;;;;;;;;;;12.88;69.00;101407.97;5022922;28;19914;-73
2022/10/05 06:52:57;;;;;;;;;;;;;;;12.82;70.04;101408.94;5013800;28;19918;-73
2022/10/05 06:55:34;;;;;;;;;;;;;;;12.86;69.82;101402.78;5021079;28;19997;-73
2022/10/05 06:58:15;;;;;;;;;;;;;;;12.89;69.69;101401.88;4993330;28;19944;-73
2022/10/05 07:00:57;;;;;;;;;;;;;;;12.96;69.59;101400.84;5012976;28;19917;-73
2022/10/05 07:03:25;;;;;;;;;;;;;;;12.99;69.53;101400.78;5031589;28;19949;-76
2022/10/05 07:05:54;;;;;;;;;;;;;;;12.97;69.21;101400.81;5011312;28;19925;-75
2022/10/05 07:08:29;;;;;;;;;;;;;;;12.95;69.61;101400.00;5012008;28;20441;-77
2022/10/05 07:11:01;;;;;;;;;;;;;;;13.06;69.55;101407.59;5009022;28;19918;-76
2022/10/05 07:13:45;;;;;;;;;;;;;;;13.11;69.40;101395.31;5010889;28;19925;-76
2022/10/05 07:16:19;;;;;;;;;;;;;;;13.15;69.34;101394.34;5011758;28;19922;-76
2022/10/05 07:18:49;;;;;;;;;;;;;;;13.06;69.72;101390.19;5011281;28;19932;-76
2022/10/05 07:21:20;;;;;;;;;;;;;;;13.05;69.70;101401.50;5011210;28;19922;-76
2022/10/05 07:23:48;;;;;;;;;;;;;;;13.12;70.20;101395.28;5010383;28;19948;-76
2022/10/05 07:26:13;;;;;;;;;;;;;;;13.13;70.16;101394.41;5012497;28;19928;-77
2022/10/05 07:28:45;;;;;;;;;;;;;;;13.18;69.98;101396.91;5010799;28;19917;-76
2022/10/05 07:31:42;;;;;;;;;;;;;;;13.22;69.42;101394.19;5009757;28;19941;-76
2022/10/05 07:34:17;;;;;;;;;;;;;;;13.27;70.58;101395.84;4977902;28;20016;-76
2022/10/05 07:39:34;;;;;;;;;;;;;;;13.29;70.69;101388.81;5009943;28;20008;-76
2022/10/05 07:42:24;;;;;;;;;;;;;;;13.27;70.87;101390.63;5010248;28;19921;-76
2022/10/05 07:44:54;;;;;;;;;;;;;;;13.31;70.68;101387.06;5009021;28;19926;-77
2022/10/05 07:47:19;;;;;;;;;;;;;;;13.38;70.72;101391.22;5011275;28;19921;-76
2022/10/05 07:50:02;;;;;;;;;;;;;;;13.42;70.27;101387.66;5014784;28;20283;-76
2022/10/05 07:52:34;;;;;;;;;;;;;;;13.36;70.75;101395.63;5017302;28;19943;-76
2022/10/05 07:55:06;;;;;;;;;;;;;;;13.43;70.63;101390.25;5012957;28;19928;-77
2022/10/05 07:57:43;;;;;;;;;;;;;;;13.42;70.29;101388.53;5015508;28;20285;-75
2022/10/05 08:00:13;;;;;;;;;;;;;;;13.46;70.92;101392.75;5012913;28;20024;-75
2022/10/05 08:02:46;;;;;;;;;;;;;;;13.51;70.60;101390.06;5012915;28;20589;-74
2022/10/05 08:05:15;;;;;;;;;;;;;;;13.59;70.64;101390.75;5014561;28;19930;-74
2022/10/05 08:07:40;;;;;;;;;;;;;;;13.61;71.13;101392.41;5005141;28;19921;-74
2022/10/05 08:10:24;;;;;;;;;;;;;;;13.63;70.79;101384.56;5012234;28;19926;-74
2022/10/05 08:13:00;;;;;;;;;;;;;;;13.73;69.97;101396.53;5011207;28;20391;-74
2022/10/05 08:15:30;;;;;;;;;;;;;;;13.77;69.93;101385.97;5014404;28;19917;-74
2022/10/05 08:18:01;;;;;;;;;;;;;;;13.72;69.84;101392.22;5017949;28;19926;-74
2022/10/05 08:20:29;;;;;;;;;;;;;;;13.69;70.18;101390.53;5018202;28;19948;-74
2022/10/05 08:23:01;;;;;;;;;;;;;;;13.67;70.31;101392.31;5019054;28;19917;-74
2022/10/05 08:25:35;;;;;;;;;;;;;;;13.79;70.63;101388.53;5009711;28;19964;-74
2022/10/05 08:28:23;;;;;;;;;;;;;;;13.79;70.40;101391.16;5010469;28;19917;-74
2022/10/05 08:30:54;;;;;;;;;;;;;;;13.81;70.62;101394.59;5009795;28;19921;-74
2022/10/05 08:33:21;;;;;;;;;;;;;;;13.87;70.49;101394.44;4993674;28;19926;-73
2022/10/05 08:36:02;;;;;;;;;;;;;;;13.91;70.25;101385.63;5014504;28;20366;-74
2022/10/05 08:38:33;;;;;;;;;;;;;;;13.90;70.75;101388.28;5007254;28;20039;-74
2022/10/05 08:41:02;;;;;;;;;;;;;;;13.95;70.60;101389.03;5008083;28;20009;-74
2022/10/05 08:43:30;;;;;;;;;;;;;;;13.89;70.26;101386.56;4991519;28;19925;-74
2022/10/05 08:46:19;;;;;;;;;;;;;;;13.90;70.41;101386.53;5009206;28;20370;-74
2022/10/05 08:48:47;;;;;;;;;;;;;;;13.92;70.68;101378.66;4989487;28;20018;-74
2022/10/05 08:51:15;;;;;;;;;;;;;;;13.96;70.69;101378.56;5015463;28;20039;-74
2022/10/05 08:53:53;;;;;;;;;;;;;;;13.99;70.47;101382.84;5008869;28;20447;-74
2022/10/05 08:56:24;;;;;;;;;;;;;;;14.03;70.06;101385.31;5010774;28;19925;-74
2022/10/05 08:58:59;;;;;;;;;;;;;;;13.94;70.53;101379.50;5017481;28;20441;-74
2022/10/05 09:01:54;;;;;;;;;;;;;;;13.95;69.92;101381.19;5009314;28;20398;-73
2022/10/05 09:04:42;;;;;;;;;;;;;;;13.97;70.09;101379.38;4991055;28;19933;-73
2022/10/05 09:07:27;;;;;;;;;;;;;;;13.93;70.03;101376.03;5014615;28;19925;-74
2022/10/05 09:10:11;;;;;;;;;;;;;;;13.91;70.25;101372.56;5007325;28;19936;-74
2022/10/05 09:12:36;;;;;;;;;;;;;;;13.92;69.81;101371.69;5012073;28;20012;-74
2022/10/05 09:15:11;;;;;;;;;;;;;;;13.92;70.50;101373.44;5012478;28;20016;-74
2022/10/05 09:17:55;;;;;;;;;;;;;;;14.01;70.30;101368.84;5012063;28;20022;-74
2022/10/05 09:20:26;;;;;;;;;;;;;;;13.95;70.99;101374.22;5017152;28;19970;-74
2022/10/05 09:22:59;;;;;;;;;;;;;;;14.10;70.55;101376.44;5010260;28;19925;-73
2022/10/05 09:25:47;;;;;;;;;;;;;;;14.02;70.98;101378.41;5011928;28;20382;-77
2022/10/05 09:28:15;;;;;;;;;;;;;;;14.13;71.13;101383.34;5006561;28;19932;-77
2022/10/05 09:30:59;;;;;;;;;;;;;;;14.05;71.54;101374.84;5016136;28;20007;-77
2022/10/05 09:33:31;;;;;;;;;;;;;;;13.99;71.54;101373.25;5002310;28;19937;-77
2022/10/05 09:36:16;;;;;;;;;;;;;;;14.00;72.13;101368.88;5011835;28;20063;-77
2022/10/05 09:39:00;;;;;;;;;;;;;;;14.04;71.77;101360.06;5005878;28;19922;-76
2022/10/05 09:41:34;;;;;;;;;;;;;;;14.19;70.85;101355.31;5008685;28;19959;-77
2022/10/05 09:43:59;;;;;;;;;;;;;;;14.14;71.29;101358.94;5013865;28;19921;-77
2022/10/05 09:46:25;;;;;;;;;;;;;;;14.23;71.07;101349.06;5012277;28;20724;-77
2022/10/05 09:48:53;;;;;;;;;;;;;;;14.19;71.68;101350.06;5011969;28;19928;-77
2022/10/05 09:51:37;;;;;;;;;;;;;;;14.23;71.48;101345.63;5012840;28;20029;-77
2022/10/05 09:54:21;;;;;;;;;;;;;;;14.28;71.26;101343.75;5007346;28;20361;-77
2022/10/05 09:56:56;;;;;;;;;;;;;;;14.21;71.42;101336.94;5002468;28;19931;-77
2022/10/05 09:59:24;;;;;;;;;;;;;;;14.21;72.09;101329.13;5012856;28;19925;-77
2022/10/05 10:01:55;;;;;;;;;;;;;;;14.30;71.53;101327.13;5006452;28;19949;-77
2022/10/05 10:04:32;;;;;;;;;;;;;;;14.25;71.73;101325.53;5003632;28;19929;-77
2022/10/05 10:07:01;;;;;;;;;;;;;;;14.25;72.46;101329.00;5006588;28;19981;-77
2022/10/05 10:09:26;;;;;;;;;;;;;;;14.29;72.32;101325.38;5009544;28;19928;-77
2022/10/05 10:12:10;;;;;;;;;;;;;;;14.32;72.10;101324.47;5013612;28;19921;-77
2022/10/05 10:14:51;;;;;;;;;;;;;;;14.37;71.96;101324.34;5016060;28;20386;-77
2022/10/05 10:17:22;;;;;;;;;;;;;;;14.38;72.13;101326.91;5017272;28;19918;-77
2022/10/05 10:19:50;;;;;;;;;;;;;;;14.38;72.29;101328.69;5010454;28;20004;-77
2022/10/05 10:22:15;;;;;;;;;;;;;;;14.42;71.86;101323.31;5010401;28;19928;-77
2022/10/05 10:24:59;;;;;;;;;;;;;;;14.39;71.96;101320.78;4992231;28;19925;-77
2022/10/05 10:27:26;;;;;;;;;;;;;;;14.38;72.24;101318.22;5003575;28;19921;-77
2022/10/05 10:30:03;;;;;;;;;;;;;;;14.44;71.74;101318.91;5007302;28;20016;-77
2022/10/05 10:32:29;;;;;;;;;;;;;;;14.47;71.09;101320.56;5010164;28;20012;-77
2022/10/05 10:35:03;;;;;;;;;;;;;;;14.58;69.76;101301.06;5014172;28;20005;-77
2022/10/05 10:37:47;;;;;;;;;;;;;;;14.65;68.63;101301.75;5007953;28;19940;-77
2022/10/05 10:40:15;;;;;;;;;;;;;;;14.70;68.70;101295.47;5006060;28;19930;-77
2022/10/05 10:42:52;;;;;;;;;;;;;;;14.67;68.40;101308.66;5008874;28;20530;-77
2022/10/05 10:45:24;;;;;;;;;;;;;;;14.71;68.70;101302.41;5011579;28;19945;-77
2022/10/05 10:47:50;;;;;;;;;;;;;;;14.73;66.81;101302.38;5019550;28;19925;-77
2022/10/05 10:50:21;;;;;;;;;;;;;;;14.79;66.65;101289.16;5022198;28;20382;-77
2022/10/05 10:53:00;;;;;;;;;;;;;;;14.79;67.31;101291.75;5011155;28;19921;-74
2022/10/05 10:55:41;;;;;;;;;;;;;;;14.79;68.06;101295.25;5008364;28;19929;-74
2022/10/05 10:58:16;;;;;;;;;;;;;;;14.78;68.41;101288.28;5008105;28;19925;-74
2022/10/05 11:00:53;;;;;;;;;;;;;;;14.80;68.45;101296.06;5013894;28;20009;-74
2022/10/05 11:03:33;;;;;;;;;;;;;;;14.81;67.77;101288.19;5015085;28;20355;-74
2022/10/05 11:05:59;;;;;;;;;;;;;;;14.82;67.61;101281.22;5007798;28;20012;-74
2022/10/05 11:08:45;;;;;;;;;;;;;;;14.86;67.24;101286.28;5012316;28;19992;-74
2022/10/05 11:11:29;;;;;;;;;;;;;;;14.85;66.84;101271.50;5009580;28;19925;-74
2022/10/05 11:14:14;;;;;;;;;;;;;;;14.92;66.35;101273.94;5017500;28;19925;-74
2022/10/05 11:16:45;;;;;;;;;;;;;;;14.89;67.45;101274.88;5013688;28;19921;-74
2022/10/05 11:19:29;;;;;;;;;;;;;;;14.89;67.50;101274.88;5013092;28;19922;-74
2022/10/05 11:22:08;;;;;;;;;;;;;;;14.91;67.47;101274.84;5014250;28;19968;-74
2022/10/05 11:24:37;;;;;;;;;;;;;;;14.91;67.88;101269.59;5006391;28;19979;-74
2022/10/05 11:27:21;;;;;;;;;;;;;;;14.98;67.63;101258.88;5007599;28;19921;-74
2022/10/05 11:30:05;;;;;;;;;;;;;;;14.96;67.30;101255.47;5009882;28;20287;-74
2022/10/05 11:32:30;;;;;;;;;;;;;;;14.96;67.55;101246.75;5004180;28;19922;-74
2022/10/05 11:34:55;;;;;;;;;;;;;;;14.97;68.11;101246.72;5009362;28;20059;-74
2022/10/05 11:37:56;;;;;;;;;;;;;;;15.02;67.74;101252.66;5010653;28;20272;-74
2022/10/05 11:40:27;;;;;;;;;;;;;;;15.01;67.76;101235.25;4931848;29;20014;-74
2022/10/05 11:43:02;;;;;;;;;;;;;;;15.07;67.23;101239.44;4995760;28;19936;-74
2022/10/05 11:45:27;;;;;;;;;;;;;;;15.12;66.00;101233.16;5011745;28;20009;-74
2022/10/05 11:48:12;;;;;;;;;;;;;;;15.12;66.23;101235.78;5021445;28;20032;-74
2022/10/05 11:50:49;;;;;;;;;;;;;;;15.03;67.73;101223.00;5009820;28;20019;-74
2022/10/05 11:53:17;;;;;;;;;;;;;;;15.14;66.93;101218.25;5008414;28;19976;-74
2022/10/05 11:56:03;;;;;;;;;;;;;;;15.19;66.02;101216.34;5010946;28;20290;-74
2022/10/05 11:58:32;;;;;;;;;;;;;;;15.12;66.73;101211.38;5007866;28;19961;-74
2022/10/05 12:01:14;;;;;;;;;;;;;;;15.17;66.38;101214.69;5010296;28;19921;-74
2022/10/05 12:03:45;;;;;;;;;;;;;;;15.18;66.77;101219.03;5013278;28;19971;-74
2022/10/05 12:06:13;;;;;;;;;;;;;;;15.18;66.87;101208.56;5008196;28;19926;-74
2022/10/05 12:08:48;;;;;;;;;;;;;;;15.17;66.75;101206.84;5007460;28;20004;-74
2022/10/05 12:11:42;;;;;;;;;;;;;;;15.21;66.58;101203.22;5005338;28;20322;-74
2022/10/05 12:14:14;;;;;;;;;;;;;;;15.29;65.32;101196.81;4992893;28;20294;-74
2022/10/05 12:16:40;;;;;;;;;;;;;;;15.28;66.45;101196.84;5021951;28;20734;-74
2022/10/05 12:19:17;;;;;;;;;;;;;;;15.23;66.20;101183.94;5019561;28;19936;-77
2022/10/05 12:21:48;;;;;;;;;;;;;;;15.21;66.74;101182.28;5022429;28;19929;-77
2022/10/05 12:24:20;;;;;;;;;;;;;;;15.24;66.00;101188.28;5008703;28;19926;-77
2022/10/05 12:26:57;;;;;;;;;;;;;;;15.27;65.41;101182.09;5013198;28;19925;-77
2022/10/05 12:29:26;;;;;;;;;;;;;;;15.30;65.43;101182.81;5011298;28;19932;-77
2022/10/05 12:31:57;;;;;;;;;;;;;;;15.25;65.38;101181.25;5006985;28;20661;-77
2022/10/05 12:34:37;;;;;;;;;;;;;;;15.25;66.07;101178.63;5010336;28;20004;-77
2022/10/05 12:37:21;;;;;;;;;;;;;;;15.30;65.34;101176.75;5006166;28;19917;-77
2022/10/05 12:39:55;;;;;;;;;;;;;;;15.37;64.84;101162.50;5011236;28;20391;-77
2022/10/05 12:42:20;;;;;;;;;;;;;;;15.37;65.09;101166.00;5015384;28;19928;-76
2022/10/05 12:45:06;;;;;;;;;;;;;;;15.29;66.09;101161.94;5013588;28;20302;-77
2022/10/05 12:47:38;;;;;;;;;;;;;;;15.35;65.71;101161.72;5020080;28;20007;-77
2022/10/05 12:50:18;;;;;;;;;;;;;;;15.35;66.10;101161.72;5012289;28;20294;-77
2022/10/05 12:52:47;;;;;;;;;;;;;;;15.40;65.88;101154.56;5007959;28;19933;-77
2022/10/05 12:55:14;;;;;;;;;;;;;;;15.39;66.09;101147.63;5004727;28;19925;-77
2022/10/05 12:57:39;;;;;;;;;;;;;;;15.35;66.37;101143.41;5005566;28;19922;-78
2022/10/05 13:00:13;;;;;;;;;;;;;;;15.42;65.97;101135.28;5015057;28;19986;-77
2022/10/05 13:02:40;;;;;;;;;;;;;;;15.42;65.91;101147.53;5011676;28;20483;-77
2022/10/05 13:05:15;;;;;;;;;;;;;;;15.45;65.66;101139.56;5011812;28;19925;-77
2022/10/05 13:07:48;;;;;;;;;;;;;;;15.48;65.11;101131.59;5010244;28;19925;-77
2022/10/05 13:10:46;;;;;;;;;;;;;;;15.45;65.66;101130.84;5009987;28;19976;-77
2022/10/05 13:13:11;;;;;;;;;;;;;;;15.45;65.85;101131.72;4964439;28;19921;-77
2022/10/05 13:15:39;;;;;;;;;;;;;;;15.47;65.80;101127.28;5019918;28;19918;-77